sensor_id;sensor_type;location;lat;lon;timestamp;pressure;altitude;pressure_sealevel;temperature;humidity
84445;BME280;74683;48.402;10.596;2024-03-02T00:00:07;95430.66;;;3.57;96.42
84445;BME280;74683;48.402;10.596;2024-03-02T00:02:43;95422.03;;;3.55;96.76
84445;BME280;74683;48.402;10.596;2024-03-02T00:05:12;95421.25;;;3.54;96.48
84445;BME280;74683;48.402;10.596;2024-03-02T00:07:41;95422.69;;;3.52;97.01
84445;BME280;74683;48.402;10.596;2024-03-02T00:10:10;95418.03;;;3.52;96.92
84445;BME280;74683;48.402;10.596;2024-03-02T00:12:38;95416.44;;;3.51;96.57
84445;BME280;74683;48.402;10.596;2024-03-02T00:15:23;95418.03;;;3.52;96.47
84445;BME280;74683;48.402;10.596;2024-03-02T00:17:56;95419.50;;;3.50;96.47
84445;BME280;74683;48.402;10.596;2024-03-02T00:20:25;95413.59;;;3.48;96.99
84445;BME280;74683;48.402;10.596;2024-03-02T00:23:05;95411.56;;;3.44;96.69
84445;BME280;74683;48.402;10.596;2024-03-02T00:25:42;95417.00;;;3.44;96.71
84445;BME280;74683;48.402;10.596;2024-03-02T00:28:31;95421.28;;;3.45;96.87
84445;BME280;74683;48.402;10.596;2024-03-02T00:31:06;95420.50;;;3.45;97.11
84445;BME280;74683;48.402;10.596;2024-03-02T00:33:47;95425.59;;;3.47;96.77
84445;BME280;74683;48.402;10.596;2024-03-02T00:36:15;95420.81;;;3.43;97.17
84445;BME280;74683;48.402;10.596;2024-03-02T00:38:47;95422.72;;;3.43;97.07
84445;BME280;74683;48.402;10.596;2024-03-02T00:41:21;95425.00;;;3.41;97.21
84445;BME280;74683;48.402;10.596;2024-03-02T00:44:03;95429.63;;;3.40;97.09
84445;BME280;74683;48.402;10.596;2024-03-02T00:46:36;95423.84;;;3.42;97.31
84445;BME280;74683;48.402;10.596;2024-03-02T00:49:04;95425.00;;;3.41;96.82
84445;BME280;74683;48.402;10.596;2024-03-02T00:51:34;95432.34;;;3.40;97.12
84445;BME280;74683;48.402;10.596;2024-03-02T00:54:04;95438.91;;;3.39;96.68
84445;BME280;74683;48.402;10.596;2024-03-02T00:56:32;95430.28;;;3.37;97.67
84445;BME280;74683;48.402;10.596;2024-03-02T00:58:58;95432.22;;;3.37;97.45
84445;BME280;74683;48.402;10.596;2024-03-02T01:01:25;95433.81;;;3.38;96.71
84445;BME280;74683;48.402;10.596;2024-03-02T01:03:52;95434.13;;;3.36;96.86
84445;BME280;74683;48.402;10.596;2024-03-02T01:06:20;95433.69;;;3.34;97.35
84445;BME280;74683;48.402;10.596;2024-03-02T01:08:46;95432.84;;;3.34;96.88
84445;BME280;74683;48.402;10.596;2024-03-02T01:11:19;95432.84;;;3.34;97.24
84445;BME280;74683;48.402;10.596;2024-03-02T01:13:46;95432.84;;;3.34;96.96
84445;BME280;74683;48.402;10.596;2024-03-02T01:16:13;95434.47;;;3.35;97.63
84445;BME280;74683;48.402;10.596;2024-03-02T01:18:42;95437.66;;;3.37;97.31
84445;BME280;74683;48.402;10.596;2024-03-02T01:21:09;95430.13;;;3.34;96.78
84445;BME280;74683;48.402;10.596;2024-03-02T01:23:35;95434.47;;;3.35;97.40
84445;BME280;74683;48.402;10.596;2024-03-02T01:26:02;95421.69;;;3.35;97.62
84445;BME280;74683;48.402;10.596;2024-03-02T01:28:29;95423.59;;;3.35;97.21
84445;BME280;74683;48.402;10.596;2024-03-02T01:30:55;95420.09;;;3.34;97.58
84445;BME280;74683;48.402;10.596;2024-03-02T01:33:22;95419.59;;;3.32;97.26
84445;BME280;74683;48.402;10.596;2024-03-02T01:35:49;95423.44;;;3.31;97.20
84445;BME280;74683;48.402;10.596;2024-03-02T01:38:16;95420.28;;;3.29;97.13
84445;BME280;74683;48.402;10.596;2024-03-02T01:40:42;95426.84;;;3.28;96.96
84445;BME280;74683;48.402;10.596;2024-03-02T01:43:11;95418.22;;;3.26;97.19
84445;BME280;74683;48.402;10.596;2024-03-02T01:45:38;95418.56;;;3.25;97.50
84445;BME280;74683;48.402;10.596;2024-03-02T01:48:06;95415.50;;;3.26;97.55
84445;BME280;74683;48.402;10.596;2024-03-02T01:50:34;95412.47;;;3.28;97.18
84445;BME280;74683;48.402;10.596;2024-03-02T01:53:01;95415.63;;;3.30;97.49
84445;BME280;74683;48.402;10.596;2024-03-02T01:55:29;95411.78;;;3.31;96.99
84445;BME280;74683;48.402;10.596;2024-03-02T01:57:57;95413.72;;;3.30;97.48
84445;BME280;74683;48.402;10.596;2024-03-02T02:00:25;95419.16;;;3.30;97.27
84445;BME280;74683;48.402;10.596;2024-03-02T02:02:54;95417.22;;;3.31;97.22
84445;BME280;74683;48.402;10.596;2024-03-02T02:05:21;95414.38;;;3.27;97.19
84445;BME280;74683;48.402;10.596;2024-03-02T02:07:48;95412.00;;;3.26;97.55
84445;BME280;74683;48.402;10.596;2024-03-02T02:10:15;95412.97;;;3.21;97.39
84445;BME280;74683;48.402;10.596;2024-03-02T02:12:42;95417.13;;;3.19;97.67
84445;BME280;74683;48.402;10.596;2024-03-02T02:15:28;95407.75;;;3.16;97.15
84445;BME280;74683;48.402;10.596;2024-03-02T02:17:56;95408.88;;;3.15;97.63
84445;BME280;74683;48.402;10.596;2024-03-02T02:20:24;95404.06;;;3.12;97.18
84445;BME280;74683;48.402;10.596;2024-03-02T02:23:01;95409.50;;;3.12;97.09
84445;BME280;74683;48.402;10.596;2024-03-02T02:25:29;95408.56;;;3.08;97.86
84445;BME280;74683;48.402;10.596;2024-03-02T02:27:56;95409.72;;;3.07;97.37
84445;BME280;74683;48.402;10.596;2024-03-02T02:30:29;95409.72;;;3.07;97.25
84445;BME280;74683;48.402;10.596;2024-03-02T02:32:56;95407.63;;;3.04;97.36
84445;BME280;74683;48.402;10.596;2024-03-02T02:35:23;95410.22;;;3.00;97.53
84445;BME280;74683;48.402;10.596;2024-03-02T02:37:54;95417.56;;;3.00;97.51
84445;BME280;74683;48.402;10.596;2024-03-02T02:40:21;95414.38;;;2.98;97.40
84445;BME280;74683;48.402;10.596;2024-03-02T02:42:48;95409.59;;;2.95;97.62
84445;BME280;74683;48.402;10.596;2024-03-02T02:45:16;95416.13;;;2.94;97.49
84445;BME280;74683;48.402;10.596;2024-03-02T02:47:43;95418.38;;;2.92;97.63
84445;BME280;74683;48.402;10.596;2024-03-02T02:50:11;95419.50;;;2.91;97.21
84445;BME280;74683;48.402;10.596;2024-03-02T02:52:40;95418.72;;;2.90;97.64
84445;BME280;74683;48.402;10.596;2024-03-02T02:55:09;95424.03;;;2.86;97.62
84445;BME280;74683;48.402;10.596;2024-03-02T02:57:38;95418.88;;;2.85;97.18
84445;BME280;74683;48.402;10.596;2024-03-02T03:00:07;95428.03;;;2.80;97.43
84445;BME280;74683;48.402;10.596;2024-03-02T03:02:37;95431.06;;;2.79;96.99
84445;BME280;74683;48.402;10.596;2024-03-02T03:05:05;95426.75;;;2.78;97.59
84445;BME280;74683;48.402;10.596;2024-03-02T03:07:32;95431.41;;;2.77;97.64
84445;BME280;74683;48.402;10.596;2024-03-02T03:10:01;95433.66;;;2.75;97.58
84445;BME280;74683;48.402;10.596;2024-03-02T03:12:27;95439.06;;;2.75;97.30
84445;BME280;74683;48.402;10.596;2024-03-02T03:14:54;95439.88;;;2.76;97.49
84445;BME280;74683;48.402;10.596;2024-03-02T03:17:23;95443.38;;;2.76;97.84
84445;BME280;74683;48.402;10.596;2024-03-02T03:19:50;95443.03;;;2.78;97.35
84445;BME280;74683;48.402;10.596;2024-03-02T03:22:17;95439.22;;;2.79;97.19
84445;BME280;74683;48.402;10.596;2024-03-02T03:24:44;95443.84;;;2.78;97.33
84445;BME280;74683;48.402;10.596;2024-03-02T03:27:10;95439.53;;;2.77;97.59
84445;BME280;74683;48.402;10.596;2024-03-02T03:29:40;95447.34;;;2.79;97.38
84445;BME280;74683;48.402;10.596;2024-03-02T03:32:06;95441.91;;;2.79;96.95
84445;BME280;74683;48.402;10.596;2024-03-02T03:34:34;95452.44;;;2.80;97.17
84445;BME280;74683;48.402;10.596;2024-03-02T03:37:01;95446.22;;;2.80;97.74
84445;BME280;74683;48.402;10.596;2024-03-02T03:39:28;95449.06;;;2.83;97.62
84445;BME280;74683;48.402;10.596;2024-03-02T03:41:55;95444.78;;;2.82;97.66
84445;BME280;74683;48.402;10.596;2024-03-02T03:44:21;95447.47;;;2.82;98.00
84445;BME280;74683;48.402;10.596;2024-03-02T03:46:48;95442.06;;;2.82;97.38
84445;BME280;74683;48.402;10.596;2024-03-02T03:49:15;95444.13;;;2.85;97.29
84445;BME280;74683;48.402;10.596;2024-03-02T03:51:41;95443.47;;;2.88;97.85
84445;BME280;74683;48.402;10.596;2024-03-02T03:54:09;95444.88;;;2.95;97.83
84445;BME280;74683;48.402;10.596;2024-03-02T03:56:37;95445.84;;;2.99;98.26
84445;BME280;74683;48.402;10.596;2024-03-02T03:59:04;95443.91;;;2.99;97.50
84445;BME280;74683;48.402;10.596;2024-03-02T04:01:31;95436.88;;;2.98;98.04
84445;BME280;74683;48.402;10.596;2024-03-02T04:04:00;95438.47;;;2.99;97.71
84445;BME280;74683;48.402;10.596;2024-03-02T04:06:29;95442.00;;;3.00;97.30
84445;BME280;74683;48.402;10.596;2024-03-02T04:08:57;95439.75;;;3.02;97.28
84445;BME280;74683;48.402;10.596;2024-03-02T04:11:23;95443.72;;;3.04;97.55
84445;BME280;74683;48.402;10.596;2024-03-02T04:13:50;95451.06;;;3.04;97.42
84445;BME280;74683;48.402;10.596;2024-03-02T04:16:17;95446.97;;;2.98;97.82
84445;BME280;74683;48.402;10.596;2024-03-02T04:18:43;95454.13;;;2.94;97.62
84445;BME280;74683;48.402;10.596;2024-03-02T04:21:10;95458.97;;;2.88;97.85
84445;BME280;74683;48.402;10.596;2024-03-02T04:23:37;95463.59;;;2.87;97.57
84445;BME280;74683;48.402;10.596;2024-03-02T04:26:04;95466.31;;;2.87;98.24
84445;BME280;74683;48.402;10.596;2024-03-02T04:28:31;95467.44;;;2.86;98.01
84445;BME280;74683;48.402;10.596;2024-03-02T04:30:58;95450.38;;;2.86;97.93
84445;BME280;74683;48.402;10.596;2024-03-02T04:33:24;95457.72;;;2.85;98.00
84445;BME280;74683;48.402;10.596;2024-03-02T04:35:51;95464.72;;;2.86;97.58
84445;BME280;74683;48.402;10.596;2024-03-02T04:38:17;95464.22;;;2.84;97.51
84445;BME280;74683;48.402;10.596;2024-03-02T04:40:44;95462.50;;;2.80;97.61
84445;BME280;74683;48.402;10.596;2024-03-02T04:43:11;95465.09;;;2.76;97.79
84445;BME280;74683;48.402;10.596;2024-03-02T04:45:41;95456.94;;;2.76;97.64
84445;BME280;74683;48.402;10.596;2024-03-02T04:48:09;95456.94;;;2.76;97.90
84445;BME280;74683;48.402;10.596;2024-03-02T04:50:36;95459.31;;;2.78;97.95
84445;BME280;74683;48.402;10.596;2024-03-02T04:53:02;95463.16;;;2.77;97.46
84445;BME280;74683;48.402;10.596;2024-03-02T04:55:29;95463.16;;;2.77;97.54
84445;BME280;74683;48.402;10.596;2024-03-02T04:58:15;95455.84;;;2.69;97.61
84445;BME280;74683;48.402;10.596;2024-03-02T05:00:42;95469.25;;;2.65;97.54
84445;BME280;74683;48.402;10.596;2024-03-02T05:03:09;95465.59;;;2.61;97.64
84445;BME280;74683;48.402;10.596;2024-03-02T05:05:36;95464.00;;;2.60;97.99
84445;BME280;74683;48.402;10.596;2024-03-02T05:08:04;95467.66;;;2.55;97.92
84445;BME280;74683;48.402;10.596;2024-03-02T05:10:31;95461.16;;;2.48;97.65
84445;BME280;74683;48.402;10.596;2024-03-02T05:12:57;95463.56;;;2.41;97.83
84445;BME280;74683;48.402;10.596;2024-03-02T05:15:26;95459.91;;;2.37;97.81
84445;BME280;74683;48.402;10.596;2024-03-02T05:17:53;95470.78;;;2.37;98.17
84445;BME280;74683;48.402;10.596;2024-03-02T05:20:20;95464.06;;;2.34;97.83
84445;BME280;74683;48.402;10.596;2024-03-02T05:22:47;95468.06;;;2.37;97.93
84445;BME280;74683;48.402;10.596;2024-03-02T05:25:15;95464.56;;;2.36;97.74
84445;BME280;74683;48.402;10.596;2024-03-02T05:27:41;95470.59;;;2.33;97.53
84445;BME280;74683;48.402;10.596;2024-03-02T05:30:09;95470.94;;;2.32;97.54
84445;BME280;74683;48.402;10.596;2024-03-02T05:32:35;95464.84;;;2.35;97.64
84445;BME280;74683;48.402;10.596;2024-03-02T05:35:03;95464.22;;;2.38;97.61
84445;BME280;74683;48.402;10.596;2024-03-02T05:37:29;95460.38;;;2.39;98.15
84445;BME280;74683;48.402;10.596;2024-03-02T05:39:56;95467.88;;;2.42;98.04
84445;BME280;74683;48.402;10.596;2024-03-02T05:42:23;95472.19;;;2.43;97.81
84445;BME280;74683;48.402;10.596;2024-03-02T05:44:50;95466.09;;;2.46;98.46
84445;BME280;74683;48.402;10.596;2024-03-02T05:47:16;95460.06;;;2.49;98.16
84445;BME280;74683;48.402;10.596;2024-03-02T05:49:43;95469.31;;;2.48;97.80
84445;BME280;74683;48.402;10.596;2024-03-02T05:52:10;95472.03;;;2.48;97.55
84445;BME280;74683;48.402;10.596;2024-03-02T05:54:38;95461.16;;;2.48;97.98
84445;BME280;74683;48.402;10.596;2024-03-02T05:57:05;95468.50;;;2.47;97.76
84445;BME280;74683;48.402;10.596;2024-03-02T05:59:58;95469.31;;;2.48;98.07
84445;BME280;74683;48.402;10.596;2024-03-02T06:02:25;95472.34;;;2.46;98.18
84445;BME280;74683;48.402;10.596;2024-03-02T06:04:54;95467.22;;;2.45;98.29
84445;BME280;74683;48.402;10.596;2024-03-02T06:07:21;95466.44;;;2.44;98.55
84445;BME280;74683;48.402;10.596;2024-03-02T06:09:48;95469.00;;;2.41;98.42
84445;BME280;74683;48.402;10.596;2024-03-02T06:12:17;95472.50;;;2.41;98.01
84445;BME280;74683;48.402;10.596;2024-03-02T06:14:44;95467.88;;;2.42;98.31
84445;BME280;74683;48.402;10.596;2024-03-02T06:17:10;95469.00;;;2.41;98.25
84445;BME280;74683;48.402;10.596;2024-03-02T06:19:37;95476.81;;;2.42;98.50
84445;BME280;74683;48.402;10.596;2024-03-02T06:22:04;95477.28;;;2.44;98.13
84445;BME280;74683;48.402;10.596;2024-03-02T06:24:30;95483.69;;;2.40;98.27
84445;BME280;74683;48.402;10.596;2024-03-02T06:26:57;95488.13;;;2.36;98.42
84445;BME280;74683;48.402;10.596;2024-03-02T06:29:23;95487.19;;;2.32;98.41
84445;BME280;74683;48.402;10.596;2024-03-02T06:31:50;95494.69;;;2.35;97.79
84445;BME280;74683;48.402;10.596;2024-03-02T06:34:20;95488.31;;;2.39;97.89
84445;BME280;74683;48.402;10.596;2024-03-02T06:36:47;95487.97;;;2.49;98.23
84445;BME280;74683;48.402;10.596;2024-03-02T06:39:14;95493.84;;;2.60;98.03
84445;BME280;74683;48.402;10.596;2024-03-02T06:41:41;95491.59;;;2.71;98.17
84445;BME280;74683;48.402;10.596;2024-03-02T06:44:08;95493.00;;;2.85;97.81
84445;BME280;74683;48.402;10.596;2024-03-02T06:46:35;95486.56;;;2.99;98.22
84445;BME280;74683;48.402;10.596;2024-03-02T06:49:02;95492.09;;;3.11;98.57
84445;BME280;74683;48.402;10.596;2024-03-02T06:51:30;95487.97;;;3.05;98.55
84445;BME280;74683;48.402;10.596;2024-03-02T06:53:57;95491.13;;;3.15;98.29
84445;BME280;74683;48.402;10.596;2024-03-02T06:56:24;95482.66;;;3.17;97.79
84445;BME280;74683;48.402;10.596;2024-03-02T06:58:50;95485.00;;;3.27;98.29
84445;BME280;74683;48.402;10.596;2024-03-02T07:01:17;95485.91;;;3.31;98.44
84445;BME280;74683;48.402;10.596;2024-03-02T07:03:43;95485.78;;;3.28;98.25
84445;BME280;74683;48.402;10.596;2024-03-02T07:06:10;95492.69;;;3.25;97.93
84445;BME280;74683;48.402;10.596;2024-03-02T07:08:37;95482.91;;;3.24;98.21
84445;BME280;74683;48.402;10.596;2024-03-02T07:11:04;95487.47;;;3.41;98.12
84445;BME280;74683;48.402;10.596;2024-03-02T07:13:30;95489.63;;;3.56;97.83
84445;BME280;74683;48.402;10.596;2024-03-02T07:15:57;95492.75;;;3.67;97.90
84445;BME280;74683;48.402;10.596;2024-03-02T07:18:30;95501.31;;;3.78;97.78
84445;BME280;74683;48.402;10.596;2024-03-02T07:20:57;95497.09;;;3.89;97.57
84445;BME280;74683;48.402;10.596;2024-03-02T07:23:25;95491.38;;;4.02;97.08
84445;BME280;74683;48.402;10.596;2024-03-02T07:25:53;95495.31;;;4.14;97.13
84445;BME280;74683;48.402;10.596;2024-03-02T07:28:26;95489.59;;;4.27;96.88
84445;BME280;74683;48.402;10.596;2024-03-02T07:31:04;95494.34;;;4.30;96.38
84445;BME280;74683;48.402;10.596;2024-03-02T07:33:31;95488.56;;;4.53;95.84
84445;BME280;74683;48.402;10.596;2024-03-02T07:35:59;95491.31;;;4.65;96.12
84445;BME280;74683;48.402;10.596;2024-03-02T07:38:31;95491.00;;;4.79;94.86
84445;BME280;74683;48.402;10.596;2024-03-02T07:40:58;95494.00;;;4.98;94.12
84445;BME280;74683;48.402;10.596;2024-03-02T07:43:24;95497.31;;;5.04;93.76
84445;BME280;74683;48.402;10.596;2024-03-02T07:45:51;95489.25;;;5.07;92.80
84445;BME280;74683;48.402;10.596;2024-03-02T07:48:18;95491.88;;;5.16;92.87
84445;BME280;74683;48.402;10.596;2024-03-02T07:50:45;95492.47;;;5.22;92.10
84445;BME280;74683;48.402;10.596;2024-03-02T07:53:11;95494.06;;;5.23;91.99
84445;BME280;74683;48.402;10.596;2024-03-02T07:55:38;95498.22;;;5.20;90.78
84445;BME280;74683;48.402;10.596;2024-03-02T07:58:06;95495.19;;;5.22;90.47
84445;BME280;74683;48.402;10.596;2024-03-02T08:00:33;95496.53;;;5.28;90.90
84445;BME280;74683;48.402;10.596;2024-03-02T08:03:00;95504.06;;;5.43;90.52
84445;BME280;74683;48.402;10.596;2024-03-02T08:05:27;95502.69;;;5.61;90.68
84445;BME280;74683;48.402;10.596;2024-03-02T08:07:54;95496.31;;;5.82;90.60
84445;BME280;74683;48.402;10.596;2024-03-02T08:10:20;95497.69;;;6.00;90.14
84445;BME280;74683;48.402;10.596;2024-03-02T08:12:47;95500.13;;;6.17;89.53
84445;BME280;74683;48.402;10.596;2024-03-02T08:15:14;95503.63;;;6.30;88.35
84445;BME280;74683;48.402;10.596;2024-03-02T08:17:41;95503.59;;;6.42;87.98
84445;BME280;74683;48.402;10.596;2024-03-02T08:20:15;95503.97;;;6.56;87.72
84445;BME280;74683;48.402;10.596;2024-03-02T08:22:41;95503.84;;;6.65;87.21
84445;BME280;74683;48.402;10.596;2024-03-02T08:25:08;95493.63;;;6.78;86.67
84445;BME280;74683;48.402;10.596;2024-03-02T08:27:36;95489.97;;;6.86;85.96
84445;BME280;74683;48.402;10.596;2024-03-02T08:30:03;95506.78;;;6.88;85.39
84445;BME280;74683;48.402;10.596;2024-03-02T08:32:33;95498.56;;;7.00;85.92
84445;BME280;74683;48.402;10.596;2024-03-02T08:35:00;95498.75;;;7.23;84.90
84445;BME280;74683;48.402;10.596;2024-03-02T08:37:27;95497.16;;;7.38;84.12
84445;BME280;74683;48.402;10.596;2024-03-02T08:39:53;95500.78;;;7.58;83.86
84445;BME280;74683;48.402;10.596;2024-03-02T08:42:21;95504.81;;;7.80;83.14
84445;BME280;74683;48.402;10.596;2024-03-02T08:44:48;95502.13;;;7.99;83.05
84445;BME280;74683;48.402;10.596;2024-03-02T08:47:15;95508.84;;;8.37;81.49
84445;BME280;74683;48.402;10.596;2024-03-02T08:49:42;95507.78;;;8.60;80.65
84445;BME280;74683;48.402;10.596;2024-03-02T08:52:09;95506.88;;;9.14;79.55
84445;BME280;74683;48.402;10.596;2024-03-02T08:54:36;95495.59;;;9.65;77.85
84445;BME280;74683;48.402;10.596;2024-03-02T08:57:03;95503.31;;;10.09;76.15
84445;BME280;74683;48.402;10.596;2024-03-02T08:59:29;95503.06;;;10.44;75.28
84445;BME280;74683;48.402;10.596;2024-03-02T09:01:57;95499.56;;;10.81;74.75
84445;BME280;74683;48.402;10.596;2024-03-02T09:04:24;95502.59;;;11.02;74.81
84445;BME280;74683;48.402;10.596;2024-03-02T09:06:53;95494.56;;;11.27;73.71
84445;BME280;74683;48.402;10.596;2024-03-02T09:09:20;95488.47;;;11.44;72.90
84445;BME280;74683;48.402;10.596;2024-03-02T09:12:12;95496.56;;;11.71;72.43
84445;BME280;74683;48.402;10.596;2024-03-02T09:14:43;95486.09;;;11.87;72.35
84445;BME280;74683;48.402;10.596;2024-03-02T09:17:10;95486.53;;;11.96;70.82
84445;BME280;74683;48.402;10.596;2024-03-02T09:19:39;95492.81;;;11.90;69.83
84445;BME280;74683;48.402;10.596;2024-03-02T09:22:06;95499.75;;;11.76;70.22
84445;BME280;74683;48.402;10.596;2024-03-02T09:24:32;95492.16;;;11.63;70.38
84445;BME280;74683;48.402;10.596;2024-03-02T09:26:59;95497.59;;;11.56;70.93
84445;BME280;74683;48.402;10.596;2024-03-02T09:29:26;95493.59;;;11.49;71.27
84445;BME280;74683;48.402;10.596;2024-03-02T09:31:53;95492.09;;;11.56;72.19
84445;BME280;74683;48.402;10.596;2024-03-02T09:34:19;95493.34;;;11.62;71.75
84445;BME280;74683;48.402;10.596;2024-03-02T09:36:46;95485.34;;;11.49;71.49
84445;BME280;74683;48.402;10.596;2024-03-02T09:39:13;95486.13;;;11.46;71.40
84445;BME280;74683;48.402;10.596;2024-03-02T09:41:40;95481.75;;;11.42;71.72
84445;BME280;74683;48.402;10.596;2024-03-02T09:44:07;95482.19;;;11.47;71.13
84445;BME280;74683;48.402;10.596;2024-03-02T09:46:35;95478.34;;;11.56;71.59
84445;BME280;74683;48.402;10.596;2024-03-02T09:49:03;95472.59;;;11.75;71.06
84445;BME280;74683;48.402;10.596;2024-03-02T09:51:31;95470.41;;;11.95;70.12
84445;BME280;74683;48.402;10.596;2024-03-02T09:54:01;95465.91;;;12.31;68.01
84445;BME280;74683;48.402;10.596;2024-03-02T09:56:46;95471.16;;;12.57;67.94
84445;BME280;74683;48.402;10.596;2024-03-02T09:59:13;95471.34;;;13.07;67.84
84445;BME280;74683;48.402;10.596;2024-03-02T10:01:59;95461.97;;;13.33;65.94
84445;BME280;74683;48.402;10.596;2024-03-02T10:04:27;95467.13;;;13.60;64.78
84445;BME280;74683;48.402;10.596;2024-03-02T10:07:26;95463.53;;;14.13;62.89
84445;BME280;74683;48.402;10.596;2024-03-02T10:09:53;95464.31;;;14.20;61.93
84445;BME280;74683;48.402;10.596;2024-03-02T10:12:19;95468.31;;;13.91;61.87
84445;BME280;74683;48.402;10.596;2024-03-02T10:14:47;95465.94;;;13.86;61.59
84445;BME280;74683;48.402;10.596;2024-03-02T10:17:17;95454.50;;;13.87;62.41
84445;BME280;74683;48.402;10.596;2024-03-02T10:19:43;95458.03;;;13.95;62.32
84445;BME280;74683;48.402;10.596;2024-03-02T10:22:10;95454.06;;;13.96;61.80
84445;BME280;74683;48.402;10.596;2024-03-02T10:24:39;95457.66;;;13.89;61.77
84445;BME280;74683;48.402;10.596;2024-03-02T10:27:16;95454.50;;;13.84;61.92
84445;BME280;74683;48.402;10.596;2024-03-02T10:29:45;95445.44;;;13.87;62.33
84445;BME280;74683;48.402;10.596;2024-03-02T10:32:12;95446.59;;;14.00;62.57
84445;BME280;74683;48.402;10.596;2024-03-02T10:34:44;95445.75;;;14.24;62.12
84445;BME280;74683;48.402;10.596;2024-03-02T10:37:12;95445.34;;;14.37;62.16
84445;BME280;74683;48.402;10.596;2024-03-02T10:39:39;95451.28;;;14.46;61.28
84445;BME280;74683;48.402;10.596;2024-03-02T10:42:08;95444.94;;;14.49;60.44
84445;BME280;74683;48.402;10.596;2024-03-02T10:44:35;95434.19;;;14.69;61.77
84445;BME280;74683;48.402;10.596;2024-03-02T10:47:03;95427.06;;;14.64;60.59
84445;BME280;74683;48.402;10.596;2024-03-02T10:49:31;95429.81;;;14.71;61.29
84445;BME280;74683;48.402;10.596;2024-03-02T10:51:59;95421.50;;;14.75;61.35
84445;BME280;74683;48.402;10.596;2024-03-02T10:54:26;95412.38;;;14.85;59.87
84445;BME280;74683;48.402;10.596;2024-03-02T10:56:58;95408.78;;;14.91;59.58
84445;BME280;74683;48.402;10.596;2024-03-02T11:01:57;95404.28;;;15.15;58.80
84445;BME280;74683;48.402;10.596;2024-03-02T11:04:31;95405.81;;;15.24;58.66
84445;BME280;74683;48.402;10.596;2024-03-02T11:07:08;95394.22;;;15.39;58.60
84445;BME280;74683;48.402;10.596;2024-03-02T11:09:41;95390.25;;;15.40;59.25
84445;BME280;74683;48.402;10.596;2024-03-02T11:12:35;95388.97;;;15.52;56.25
84445;BME280;74683;48.402;10.596;2024-03-02T11:15:10;95394.31;;;15.29;57.52
84445;BME280;74683;48.402;10.596;2024-03-02T11:17:39;95377.59;;;14.80;56.58
84445;BME280;74683;48.402;10.596;2024-03-02T11:20:08;95379.66;;;14.69;57.17
84445;BME280;74683;48.402;10.596;2024-03-02T11:22:35;95374.47;;;14.78;56.78
84445;BME280;74683;48.402;10.596;2024-03-02T11:25:02;95375.28;;;14.75;57.03
84445;BME280;74683;48.402;10.596;2024-03-02T11:33:07;95355.59;;;15.21;55.46
84445;BME280;74683;48.402;10.596;2024-03-02T11:35:37;95354.44;;;15.19;56.08
84445;BME280;74683;48.402;10.596;2024-03-02T11:38:04;95352.84;;;15.18;56.05
84445;BME280;74683;48.402;10.596;2024-03-02T11:40:30;95347.44;;;15.00;54.96
84445;BME280;74683;48.402;10.596;2024-03-02T11:42:59;95345.34;;;15.18;55.78
84445;BME280;74683;48.402;10.596;2024-03-02T11:45:27;95329.91;;;15.17;54.59
84445;BME280;74683;48.402;10.596;2024-03-02T11:47:57;95328.91;;;14.90;56.22
84445;BME280;74683;48.402;10.596;2024-03-02T11:50:33;95319.38;;;14.98;55.74
84445;BME280;74683;48.402;10.596;2024-03-02T11:53:02;95312.09;;;15.18;55.01
84445;BME280;74683;48.402;10.596;2024-03-02T11:55:35;95306.53;;;15.26;54.24
84445;BME280;74683;48.402;10.596;2024-03-02T11:58:44;95294.63;;;15.29;54.27
84445;BME280;74683;48.402;10.596;2024-03-02T12:05:13;95288.59;;;15.37;52.15
84445;BME280;74683;48.402;10.596;2024-03-02T12:11:29;95285.84;;;15.37;52.00
84445;BME280;74683;48.402;10.596;2024-03-02T12:21:18;95283.91;;;15.75;52.44
84445;BME280;74683;48.402;10.596;2024-03-02T12:23:46;95274.50;;;15.66;52.75
84445;BME280;74683;48.402;10.596;2024-03-02T12:26:19;95270.84;;;15.35;54.16
84445;BME280;74683;48.402;10.596;2024-03-02T12:28:50;95279.00;;;15.49;53.75
84445;BME280;74683;48.402;10.596;2024-03-02T12:34:07;95262.25;;;15.60;52.77
84445;BME280;74683;48.402;10.596;2024-03-02T12:37:04;95262.25;;;15.60;52.82
84445;BME280;74683;48.402;10.596;2024-03-02T12:39:58;95255.41;;;15.75;53.44
84445;BME280;74683;48.402;10.596;2024-03-02T12:42:51;95235.09;;;15.85;51.98
84445;BME280;74683;48.402;10.596;2024-03-02T12:45:47;95249.41;;;16.14;51.67
84445;BME280;74683;48.402;10.596;2024-03-02T12:48:36;95233.25;;;16.36;51.83
84445;BME280;74683;48.402;10.596;2024-03-02T12:51:04;95244.41;;;16.59;50.91
84445;BME280;74683;48.402;10.596;2024-03-02T12:53:31;95243.41;;;16.46;52.28
84445;BME280;74683;48.402;10.596;2024-03-02T12:55:58;95245.91;;;16.37;51.62
84445;BME280;74683;48.402;10.596;2024-03-02T12:58:26;95232.25;;;16.50;52.10
84445;BME280;74683;48.402;10.596;2024-03-02T13:01:14;95237.03;;;16.22;52.00
84445;BME280;74683;48.402;10.596;2024-03-02T13:04:11;95245.88;;;16.41;51.72
84445;BME280;74683;48.402;10.596;2024-03-02T13:07:24;95232.22;;;16.53;51.22
84445;BME280;74683;48.402;10.596;2024-03-02T13:10:37;95219.94;;;16.81;50.97
84445;BME280;74683;48.402;10.596;2024-03-02T13:13:58;95219.41;;;17.13;49.73
84445;BME280;74683;48.402;10.596;2024-03-02T13:17:27;95214.31;;;17.08;48.74
84445;BME280;74683;48.402;10.596;2024-03-02T13:21:06;95201.78;;;17.24;48.53
84445;BME280;74683;48.402;10.596;2024-03-02T13:23:49;95205.06;;;17.38;47.34
84445;BME280;74683;48.402;10.596;2024-03-02T13:26:23;95201.38;;;17.45;46.68
84445;BME280;74683;48.402;10.596;2024-03-02T13:29:05;95202.50;;;17.71;46.62
84445;BME280;74683;48.402;10.596;2024-03-02T13:31:36;95204.66;;;17.83;47.01
84445;BME280;74683;48.402;10.596;2024-03-02T13:34:03;95203.72;;;17.90;46.51
84445;BME280;74683;48.402;10.596;2024-03-02T13:40:20;95189.88;;;18.42;46.79
84445;BME280;74683;48.402;10.596;2024-03-02T13:53:21;95186.56;;;18.47;44.37